createdAt,value
2019-02-22T00:00:09.887Z,100.00
2019-02-22T00:02:39.602Z,100.00
2019-02-22T00:05:08.071Z,100.00
2019-02-22T00:07:36.277Z,100.00
2019-02-22T00:10:07.125Z,100.00
2019-02-22T00:12:35.194Z,100.00
2019-02-22T00:15:03.646Z,100.00
2019-02-22T00:17:31.730Z,100.00
2019-02-22T00:19:59.883Z,100.00
2019-02-22T00:22:27.991Z,100.00
2019-02-22T00:24:56.055Z,100.00
2019-02-22T00:27:24.344Z,100.00
2019-02-22T00:29:52.496Z,100.00
2019-02-22T00:32:20.588Z,100.00
2019-02-22T00:34:49.060Z,100.00
2019-02-22T00:37:17.141Z,100.00
2019-02-22T00:43:40.779Z,100.00
2019-02-22T00:46:09.244Z,100.00
2019-02-22T00:48:37.719Z,100.00
2019-02-22T00:51:05.817Z,100.00
2019-02-22T00:53:33.867Z,100.00
2019-02-22T00:56:02.443Z,100.00
2019-02-22T00:58:30.590Z,100.00
2019-02-22T01:00:58.679Z,100.00
2019-02-22T01:03:26.741Z,100.00
2019-02-22T01:05:54.881Z,100.00
2019-02-22T01:08:22.991Z,100.00
2019-02-22T01:10:51.147Z,100.00
2019-02-22T01:13:19.240Z,100.00
2019-02-22T01:15:47.286Z,100.00
2019-02-22T01:18:15.582Z,100.00
2019-02-22T01:20:54.051Z,100.00
2019-02-22T01:23:14.547Z,100.00
2019-02-22T01:25:43.123Z,100.00
2019-02-22T01:28:11.227Z,100.00
2019-02-22T01:30:39.655Z,100.00
2019-02-22T01:33:07.954Z,100.00
2019-02-22T01:35:36.242Z,100.00
2019-02-22T01:38:04.450Z,100.00
2019-02-22T01:40:43.212Z,100.00
2019-02-22T01:43:02.760Z,100.00
2019-02-22T01:45:30.931Z,100.00
2019-02-22T01:48:00.274Z,100.00
2019-02-22T01:50:29.350Z,100.00
2019-02-22T01:52:57.425Z,100.00
2019-02-22T01:55:25.517Z,100.00
2019-02-22T01:57:54.140Z,100.00
2019-02-22T02:00:22.450Z,100.00
2019-02-22T02:02:50.822Z,100.00
2019-02-22T02:05:19.164Z,100.00
2019-02-22T02:07:47.888Z,100.00
2019-02-22T02:10:16.082Z,100.00
2019-02-22T02:12:44.238Z,100.00
2019-02-22T02:15:12.458Z,100.00
2019-02-22T02:17:41.027Z,100.00
2019-02-22T02:20:09.980Z,100.00
2019-02-22T02:22:38.127Z,100.00
2019-02-22T02:25:08.041Z,100.00
2019-02-22T02:27:36.297Z,100.00
2019-02-22T02:30:05.342Z,100.00
2019-02-22T02:32:33.370Z,100.00
2019-02-22T02:35:01.530Z,100.00
2019-02-22T02:37:29.700Z,100.00
2019-02-22T02:39:57.951Z,100.00
2019-02-22T02:42:26.064Z,100.00
2019-02-22T02:44:54.227Z,100.00
2019-02-22T02:47:23.043Z,100.00
2019-02-22T02:49:51.149Z,100.00
2019-02-22T02:52:19.678Z,100.00
2019-02-22T02:54:47.764Z,100.00
2019-02-22T02:57:15.877Z,100.00
2019-02-22T02:59:43.949Z,100.00
2019-02-22T03:02:22.291Z,100.00
2019-02-22T03:04:50.347Z,100.00
2019-02-22T03:07:40.851Z,100.00
2019-02-22T03:10:09.135Z,100.00
2019-02-22T03:12:37.331Z,100.00
2019-02-22T03:15:08.029Z,100.00
2019-02-22T03:17:36.754Z,100.00
2019-02-22T03:20:05.333Z,100.00
2019-02-22T03:22:33.505Z,100.00
2019-02-22T03:25:01.777Z,100.00
2019-02-22T03:27:30.003Z,100.00
2019-02-22T03:29:58.175Z,100.00
2019-02-22T03:32:26.436Z,100.00
2019-02-22T03:34:54.979Z,100.00
2019-02-22T03:37:24.135Z,100.00
2019-02-22T03:39:52.456Z,100.00
2019-02-22T03:42:20.755Z,100.00
2019-02-22T03:44:51.917Z,100.00
2019-02-22T03:47:20.073Z,100.00
2019-02-22T03:49:49.154Z,100.00
2019-02-22T03:52:39.666Z,100.00
2019-02-22T03:55:07.975Z,100.00
2019-02-22T03:57:37.276Z,100.00
2019-02-22T04:00:06.651Z,100.00
2019-02-22T04:02:35.009Z,100.00
2019-02-22T04:05:03.566Z,100.00
2019-02-22T04:07:31.729Z,100.00
2019-02-22T04:10:00.033Z,100.00
2019-02-22T04:12:28.426Z,100.00
2019-02-22T04:14:56.608Z,100.00
2019-02-22T04:17:24.881Z,100.00
2019-02-22T04:19:53.070Z,100.00
2019-02-22T04:22:21.112Z,100.00
2019-02-22T04:24:50.349Z,100.00
2019-02-22T04:27:18.935Z,100.00
2019-02-22T04:29:47.039Z,100.00
2019-02-22T04:32:15.485Z,100.00
2019-02-22T04:34:44.199Z,100.00
2019-02-22T04:37:12.340Z,100.00
2019-02-22T04:39:41.022Z,100.00
2019-02-22T04:42:09.251Z,100.00
2019-02-22T04:44:37.523Z,100.00
2019-02-22T04:47:05.614Z,100.00
2019-02-22T04:49:34.237Z,100.00
2019-02-22T04:52:02.298Z,100.00
2019-02-22T04:54:30.355Z,100.00
2019-02-22T04:56:58.850Z,100.00
2019-02-22T04:59:26.940Z,100.00
2019-02-22T05:01:55.200Z,100.00
2019-02-22T05:04:23.425Z,100.00
2019-02-22T05:06:52.108Z,100.00
2019-02-22T05:09:20.381Z,100.00
2019-02-22T05:11:48.624Z,100.00
2019-02-22T05:14:16.778Z,100.00
2019-02-22T05:16:44.847Z,100.00
2019-02-22T05:19:12.999Z,100.00
2019-02-22T05:21:41.594Z,100.00
2019-02-22T05:24:09.682Z,100.00
2019-02-22T05:26:38.248Z,100.00
2019-02-22T05:29:06.460Z,100.00
2019-02-22T05:31:35.038Z,100.00
2019-02-22T05:34:03.213Z,100.00
2019-02-22T05:36:31.246Z,100.00
2019-02-22T05:38:59.518Z,100.00
2019-02-22T05:41:32.163Z,100.00
2019-02-22T05:44:00.377Z,100.00
2019-02-22T05:46:29.238Z,100.00
2019-02-22T05:48:57.366Z,100.00
2019-02-22T05:51:25.459Z,100.00
2019-02-22T05:53:53.605Z,100.00
2019-02-22T05:56:21.681Z,100.00
2019-02-22T05:58:49.770Z,100.00
2019-02-22T06:01:19.290Z,100.00
2019-02-22T06:03:47.514Z,100.00
2019-02-22T06:06:15.743Z,100.00
2019-02-22T06:08:43.796Z,100.00
2019-02-22T06:11:12.591Z,100.00
2019-02-22T06:13:40.659Z,100.00
2019-02-22T06:16:08.773Z,100.00
2019-02-22T06:18:36.875Z,100.00
2019-02-22T06:21:05.130Z,100.00
2019-02-22T06:23:33.207Z,100.00
2019-02-22T06:26:01.946Z,100.00
2019-02-22T06:28:31.911Z,100.00
2019-02-22T06:30:59.976Z,100.00
2019-02-22T06:33:28.327Z,100.00
2019-02-22T06:35:56.452Z,100.00
2019-02-22T06:38:25.043Z,100.00
2019-02-22T06:40:53.194Z,100.00
2019-02-22T06:43:21.643Z,100.00
2019-02-22T06:45:49.802Z,100.00
2019-02-22T06:48:17.908Z,100.00
2019-02-22T06:50:46.012Z,100.00
2019-02-22T06:53:15.134Z,100.00
2019-02-22T06:55:43.315Z,100.00
2019-02-22T06:58:11.884Z,100.00
2019-02-22T07:00:40.033Z,100.00
2019-02-22T07:03:08.108Z,100.00
2019-02-22T07:05:37.033Z,100.00
2019-02-22T07:08:05.097Z,100.00
2019-02-22T07:10:52.979Z,100.00
2019-02-22T07:13:21.109Z,100.00
2019-02-22T07:15:49.395Z,100.00
2019-02-22T07:18:17.566Z,100.00
2019-02-22T07:20:46.383Z,100.00
2019-02-22T07:23:14.469Z,100.00
2019-02-22T07:25:42.589Z,100.00
2019-02-22T07:28:10.737Z,100.00
2019-02-22T07:30:38.843Z,100.00
2019-02-22T07:33:07.127Z,100.00
2019-02-22T07:35:35.340Z,100.00
2019-02-22T07:38:03.419Z,100.00
2019-02-22T07:40:31.593Z,100.00
2019-02-22T07:43:07.707Z,100.00
2019-02-22T07:45:29.767Z,100.00
2019-02-22T07:47:57.919Z,100.00
2019-02-22T07:50:26.079Z,100.00
2019-02-22T07:52:54.297Z,100.00
2019-02-22T07:55:22.429Z,100.00
2019-02-22T07:57:50.559Z,100.00
2019-02-22T08:00:18.651Z,100.00
2019-02-22T08:02:47.563Z,100.00
2019-02-22T08:05:15.803Z,100.00
2019-02-22T08:07:44.210Z,100.00
2019-02-22T08:10:12.413Z,100.00
2019-02-22T08:12:40.690Z,100.00
2019-02-22T08:15:10.572Z,100.00
2019-02-22T08:17:38.860Z,100.00
2019-02-22T08:20:07.671Z,100.00
2019-02-22T08:22:35.962Z,100.00
2019-02-22T08:25:04.267Z,100.00
2019-02-22T08:27:32.497Z,100.00
2019-02-22T08:30:00.831Z,100.00
2019-02-22T08:32:28.944Z,100.00
2019-02-22T08:34:57.097Z,100.00
2019-02-22T08:37:25.224Z,100.00
2019-02-22T08:39:58.640Z,100.00
2019-02-22T08:42:25.617Z,100.00
2019-02-22T08:44:54.047Z,100.00
2019-02-22T08:47:22.287Z,100.00
2019-02-22T08:49:50.432Z,100.00
2019-02-22T08:52:18.693Z,100.00
2019-02-22T08:54:47.520Z,100.00
2019-02-22T08:57:16.186Z,100.00
2019-02-22T08:59:44.325Z,100.00
2019-02-22T09:02:13.110Z,100.00
2019-02-22T09:04:41.518Z,100.00
2019-02-22T09:07:10.840Z,100.00
2019-02-22T09:09:39.293Z,100.00
2019-02-22T09:12:07.661Z,100.00
2019-02-22T09:14:36.156Z,100.00
2019-02-22T09:17:04.871Z,100.00
2019-02-22T09:19:33.370Z,100.00
2019-02-22T09:22:02.335Z,100.00
2019-02-22T09:24:31.388Z,100.00
2019-02-22T09:26:59.554Z,100.00
2019-02-22T09:29:27.679Z,100.00
2019-02-22T09:31:55.922Z,100.00
2019-02-22T09:34:24.470Z,100.00
2019-02-22T09:36:53.388Z,100.00
2019-02-22T09:39:21.823Z,100.00
2019-02-22T09:41:49.989Z,100.00
2019-02-22T09:44:18.890Z,100.00
2019-02-22T09:46:48.059Z,100.00
2019-02-22T09:49:16.304Z,99.77
2019-02-22T09:51:44.498Z,99.24
2019-02-22T09:54:12.697Z,97.18
2019-02-22T09:56:41.841Z,95.79
2019-02-22T09:59:09.914Z,94.89
2019-02-22T10:01:38.102Z,94.74
2019-02-22T10:04:06.616Z,95.33
2019-02-22T10:06:34.735Z,94.83
2019-02-22T10:09:05.768Z,94.63
2019-02-22T10:11:34.058Z,94.27
2019-02-22T10:14:06.602Z,94.06
2019-02-22T10:16:33.887Z,95.12
2019-02-22T10:19:02.030Z,94.86
2019-02-22T10:21:30.402Z,94.52
2019-02-22T10:23:58.498Z,94.49
2019-02-22T10:26:26.570Z,94.77
2019-02-22T10:28:54.678Z,93.22
2019-02-22T10:31:23.003Z,94.46
2019-02-22T10:33:51.088Z,93.41
2019-02-22T10:36:19.846Z,93.48
2019-02-22T10:38:48.283Z,93.19
2019-02-22T10:41:16.743Z,93.04
2019-02-22T10:43:45.003Z,91.49
2019-02-22T10:46:13.037Z,91.92
2019-02-22T10:48:41.164Z,92.25
2019-02-22T10:51:09.230Z,92.65
2019-02-22T10:53:37.325Z,92.50
2019-02-22T10:56:05.495Z,93.00
2019-02-22T10:58:33.740Z,92.81
2019-02-22T11:01:02.117Z,92.98
2019-02-22T11:03:30.611Z,92.93
2019-02-22T11:05:58.697Z,92.00
2019-02-22T11:08:27.305Z,92.21
2019-02-22T11:10:55.493Z,91.67
2019-02-22T11:13:25.420Z,91.10
2019-02-22T11:15:53.702Z,91.08
2019-02-22T11:18:21.937Z,90.85
2019-02-22T11:20:51.622Z,91.02
2019-02-22T11:23:19.844Z,90.56
2019-02-22T11:25:48.069Z,90.32
2019-02-22T11:28:16.557Z,90.08
2019-02-22T11:30:45.060Z,89.68
2019-02-22T11:33:13.216Z,88.67
2019-02-22T11:35:41.429Z,88.00
2019-02-22T11:38:09.486Z,87.89
2019-02-22T11:40:37.690Z,86.77
2019-02-22T11:43:05.875Z,85.74
2019-02-22T11:45:34.123Z,87.16
2019-02-22T11:48:09.234Z,90.38
2019-02-22T11:50:32.254Z,91.95
2019-02-22T11:53:02.123Z,92.37
2019-02-22T11:55:30.726Z,91.32
2019-02-22T11:57:58.890Z,91.19
2019-02-22T12:00:29.096Z,90.32
2019-02-22T12:02:57.184Z,90.87
2019-02-22T12:05:25.396Z,91.14
2019-02-22T12:07:53.787Z,90.29
2019-02-22T12:10:22.448Z,90.16
2019-02-22T12:12:50.874Z,90.47
2019-02-22T12:15:19.014Z,90.07
2019-02-22T12:17:47.082Z,90.02
2019-02-22T12:20:15.700Z,90.26
2019-02-22T12:22:43.992Z,90.88
2019-02-22T12:25:12.201Z,90.14
2019-02-22T12:27:40.282Z,90.02
2019-02-22T12:30:11.426Z,90.05
2019-02-22T12:32:39.783Z,89.24
2019-02-22T12:35:08.130Z,89.44
2019-02-22T12:37:36.215Z,90.28
2019-02-22T12:40:05.210Z,90.35
2019-02-22T12:42:33.531Z,90.18
2019-02-22T12:45:04.046Z,90.30
2019-02-22T12:47:32.184Z,90.19
2019-02-22T12:50:00.360Z,90.77
2019-02-22T12:52:28.528Z,89.22
2019-02-22T12:54:56.611Z,88.83
2019-02-22T12:57:24.734Z,88.90
2019-02-22T12:59:52.951Z,89.71
2019-02-22T13:02:21.163Z,89.22
2019-02-22T13:04:49.269Z,90.42
2019-02-22T13:07:17.389Z,91.38
2019-02-22T13:09:45.573Z,89.25
2019-02-22T13:12:16.527Z,89.29
2019-02-22T13:14:43.900Z,89.14
2019-02-22T13:17:12.023Z,88.69
2019-02-22T13:19:40.098Z,89.36
2019-02-22T13:22:08.473Z,90.70
2019-02-22T13:24:36.593Z,90.16
2019-02-22T13:27:04.829Z,89.01
2019-02-22T13:29:33.716Z,89.16
2019-02-22T13:32:01.835Z,88.86
2019-02-22T13:34:29.895Z,87.39
2019-02-22T13:36:58.393Z,87.96
2019-02-22T13:39:26.682Z,87.70
2019-02-22T13:41:54.834Z,87.14
2019-02-22T13:44:23.219Z,86.86
2019-02-22T13:46:51.634Z,86.06
2019-02-22T13:49:19.885Z,86.90
2019-02-22T13:51:48.096Z,86.43
2019-02-22T13:54:16.279Z,86.47
2019-02-22T13:56:44.440Z,85.53
2019-02-22T13:59:12.542Z,86.26
2019-02-22T14:01:40.670Z,86.35
2019-02-22T14:04:08.883Z,86.90
2019-02-22T14:06:36.950Z,87.25
2019-02-22T14:09:06.256Z,86.59
2019-02-22T14:11:34.500Z,86.30
2019-02-22T14:14:02.695Z,86.85
2019-02-22T14:16:30.773Z,85.60
2019-02-22T14:18:58.885Z,84.63
2019-02-22T14:21:27.282Z,84.57
2019-02-22T14:23:56.138Z,84.60
2019-02-22T14:26:24.530Z,85.66
2019-02-22T14:28:52.628Z,84.94
2019-02-22T14:31:20.761Z,85.34
2019-02-22T14:33:48.808Z,84.50
2019-02-22T14:36:17.085Z,83.53
2019-02-22T14:38:45.552Z,83.57
2019-02-22T14:41:13.827Z,83.01
2019-02-22T14:43:41.900Z,84.54
2019-02-22T14:46:10.112Z,83.90
2019-02-22T14:48:38.196Z,83.80
2019-02-22T14:51:06.777Z,83.11
2019-02-22T14:53:34.835Z,83.42
2019-02-22T14:56:02.934Z,81.63
2019-02-22T14:58:30.988Z,81.42
2019-02-22T15:00:59.113Z,80.56
2019-02-22T15:03:27.533Z,80.19
2019-02-22T15:05:55.658Z,80.07
2019-02-22T15:08:24.032Z,79.89
2019-02-22T15:10:52.574Z,79.77
2019-02-22T15:13:20.881Z,79.66
2019-02-22T15:16:07.483Z,81.36
2019-02-22T15:18:35.573Z,80.31
2019-02-22T15:21:03.746Z,80.41
2019-02-22T15:23:31.789Z,81.02
2019-02-22T15:25:59.979Z,80.19
2019-02-22T15:28:28.154Z,80.30
2019-02-22T15:30:56.583Z,81.13
2019-02-22T15:33:24.739Z,80.97
2019-02-22T15:35:53.113Z,81.80
2019-02-22T15:38:21.513Z,81.25
2019-02-22T15:40:49.579Z,80.97
2019-02-22T15:43:17.999Z,80.91
2019-02-22T15:45:47.127Z,81.32
2019-02-22T15:48:16.922Z,80.97
2019-02-22T15:50:45.046Z,81.08
2019-02-22T15:53:13.701Z,82.05
2019-02-22T15:55:41.752Z,81.84
2019-02-22T15:58:09.907Z,81.56
2019-02-22T16:00:37.934Z,81.44
2019-02-22T16:03:06.315Z,80.64
2019-02-22T16:05:40.265Z,80.79
2019-02-22T16:08:10.386Z,80.50
2019-02-22T16:10:40.650Z,80.98
2019-02-22T16:13:10.078Z,80.54
2019-02-22T16:15:40.598Z,81.33
2019-02-22T16:18:09.059Z,80.98
2019-02-22T16:20:37.629Z,80.94
2019-02-22T16:23:05.806Z,81.00
2019-02-22T16:25:34.340Z,80.63
2019-02-22T16:28:02.463Z,81.06
2019-02-22T16:30:32.562Z,80.72
2019-02-22T16:33:00.666Z,81.00
2019-02-22T16:35:29.041Z,81.48
2019-02-22T16:37:57.395Z,81.93
2019-02-22T16:40:25.567Z,82.17
2019-02-22T16:42:53.964Z,82.13
2019-02-22T16:45:22.687Z,82.83
2019-02-22T16:47:50.843Z,83.13
2019-02-22T16:50:19.839Z,83.55
2019-02-22T16:52:48.085Z,83.93
2019-02-22T16:55:16.266Z,84.29
2019-02-22T16:57:44.362Z,84.37
2019-02-22T17:00:13.207Z,84.08
2019-02-22T17:02:41.547Z,83.99
2019-02-22T17:05:12.050Z,83.90
2019-02-22T17:07:40.549Z,83.11
2019-02-22T17:10:09.645Z,83.50
2019-02-22T17:12:38.182Z,82.86
2019-02-22T17:15:11.196Z,82.25
2019-02-22T17:17:39.252Z,82.20
2019-02-22T17:20:09.625Z,81.51
2019-02-22T17:22:37.685Z,81.29
2019-02-22T17:25:08.293Z,81.40
2019-02-22T17:27:36.383Z,81.39
2019-02-22T17:30:05.931Z,81.56
2019-02-22T17:32:34.343Z,81.49
2019-02-22T17:35:02.912Z,81.61
2019-02-22T17:37:31.080Z,81.42
2019-02-22T17:39:59.156Z,81.97
2019-02-22T17:42:27.638Z,82.23
2019-02-22T17:44:56.131Z,82.33
2019-02-22T17:47:24.501Z,82.63
2019-02-22T17:49:52.622Z,82.42
2019-02-22T17:52:20.749Z,82.25
2019-02-22T17:54:48.931Z,82.31
2019-02-22T17:57:17.530Z,82.39
2019-02-22T17:59:45.671Z,82.14
2019-02-22T18:02:13.962Z,82.06
2019-02-22T18:04:42.065Z,81.67
2019-02-22T18:07:10.138Z,81.44
2019-02-22T18:09:38.450Z,81.20
2019-02-22T18:12:07.668Z,81.62
2019-02-22T18:14:35.846Z,81.44
2019-02-22T18:17:08.474Z,80.47
2019-02-22T18:19:34.957Z,80.22
2019-02-22T18:22:03.099Z,80.24
2019-02-22T18:24:31.351Z,80.42
2019-02-22T18:26:59.596Z,80.93
2019-02-22T18:29:35.036Z,80.99
2019-02-22T18:31:58.185Z,82.27
2019-02-22T18:34:26.399Z,84.51
2019-02-22T18:36:54.489Z,86.04
2019-02-22T18:39:22.676Z,86.54
2019-02-22T18:41:50.751Z,87.09
2019-02-22T18:44:19.320Z,88.52
2019-02-22T18:46:47.552Z,88.33
2019-02-22T18:49:16.152Z,90.20
2019-02-22T18:51:44.308Z,90.18
2019-02-22T18:54:12.490Z,91.34
2019-02-22T18:56:42.051Z,90.91
2019-02-22T18:59:11.060Z,90.64
2019-02-22T19:01:39.312Z,91.65
2019-02-22T19:04:07.474Z,91.38
2019-02-22T19:06:35.568Z,91.91
2019-02-22T19:09:05.478Z,92.02
2019-02-22T19:11:34.075Z,92.91
2019-02-22T19:14:02.170Z,93.10
2019-02-22T19:16:30.642Z,94.02
2019-02-22T19:18:58.773Z,94.59
2019-02-22T19:21:26.833Z,94.53
2019-02-22T19:23:54.974Z,94.98
2019-02-22T19:26:23.254Z,94.68
2019-02-22T19:28:51.799Z,94.63
2019-02-22T19:31:20.119Z,93.76
2019-02-22T19:33:49.906Z,94.65
2019-02-22T19:36:18.344Z,94.87
2019-02-22T19:38:47.067Z,94.49
2019-02-22T19:41:15.419Z,93.13
2019-02-22T19:43:43.849Z,93.43
2019-02-22T19:46:12.072Z,93.64
2019-02-22T19:48:41.000Z,92.13
2019-02-22T19:51:09.230Z,92.07
2019-02-22T19:53:38.118Z,91.72
2019-02-22T19:56:06.790Z,92.63
2019-02-22T19:58:35.244Z,91.64
2019-02-22T20:01:04.149Z,92.33
2019-02-22T20:03:32.479Z,92.70
2019-02-22T20:06:01.266Z,92.46
2019-02-22T20:08:30.263Z,92.33
2019-02-22T20:10:58.729Z,91.70
2019-02-22T20:13:27.209Z,91.79
2019-02-22T20:15:55.613Z,92.35
2019-02-22T20:18:24.311Z,93.06
2019-02-22T20:20:52.921Z,93.98
2019-02-22T20:23:21.301Z,93.00
2019-02-22T20:25:49.693Z,93.16
2019-02-22T20:28:18.020Z,93.45
2019-02-22T20:30:46.574Z,93.44
2019-02-22T20:33:14.906Z,93.51
2019-02-22T20:35:43.401Z,93.92
2019-02-22T20:38:11.780Z,93.45
2019-02-22T20:40:40.649Z,93.05
2019-02-22T20:43:09.173Z,93.61
2019-02-22T20:45:37.619Z,92.98
2019-02-22T20:48:06.224Z,92.02
2019-02-22T20:50:34.536Z,92.60
2019-02-22T20:53:03.367Z,92.41
2019-02-22T20:55:31.872Z,92.08
2019-02-22T20:58:01.656Z,91.89
2019-02-22T21:00:29.949Z,91.51
2019-02-22T21:02:58.240Z,91.42
2019-02-22T21:05:26.581Z,92.12
2019-02-22T21:07:54.828Z,91.41
2019-02-22T21:10:23.381Z,92.33
2019-02-22T21:12:51.653Z,93.26
2019-02-22T21:15:21.367Z,92.59
2019-02-22T21:17:51.314Z,92.69
2019-02-22T21:20:19.473Z,92.34
2019-02-22T21:22:47.562Z,92.15
2019-02-22T21:25:15.644Z,91.87
2019-02-22T21:27:43.765Z,91.79
2019-02-22T21:30:13.070Z,92.59
2019-02-22T21:32:41.352Z,92.11
2019-02-22T21:35:09.787Z,93.64
2019-02-22T21:37:37.931Z,93.41
2019-02-22T21:40:08.230Z,93.34
2019-02-22T21:42:36.337Z,93.21
2019-02-22T21:45:04.594Z,92.50
2019-02-22T21:47:32.678Z,91.64
2019-02-22T21:50:01.155Z,92.76
2019-02-22T21:52:29.449Z,91.98
2019-02-22T21:54:57.562Z,91.87
2019-02-22T21:57:25.676Z,91.68
2019-02-22T21:59:53.798Z,91.20
2019-02-22T22:02:22.278Z,91.05
2019-02-22T22:04:50.385Z,91.53
2019-02-22T22:07:20.501Z,91.22
2019-02-22T22:09:50.338Z,91.59
2019-02-22T22:12:18.485Z,91.65
2019-02-22T22:14:46.574Z,91.55
2019-02-22T22:17:14.691Z,91.46
2019-02-22T22:19:42.791Z,91.42
2019-02-22T22:22:11.435Z,91.49
2019-02-22T22:24:39.556Z,91.48
2019-02-22T22:27:08.986Z,92.16
2019-02-22T22:29:37.735Z,92.10
2019-02-22T22:32:05.775Z,93.30
2019-02-22T22:34:34.048Z,93.20
2019-02-22T22:37:02.394Z,93.09
2019-02-22T22:39:30.899Z,93.60
2019-02-22T22:41:59.588Z,93.88
2019-02-22T22:44:27.754Z,94.23
2019-02-22T22:46:55.952Z,94.30
2019-02-22T22:49:24.065Z,94.11
2019-02-22T22:51:53.302Z,94.43
2019-02-22T22:54:21.354Z,94.59
2019-02-22T22:56:50.518Z,95.54
2019-02-22T22:59:18.654Z,95.53
2019-02-22T23:01:47.427Z,95.38
2019-02-22T23:04:15.482Z,95.50
2019-02-22T23:06:44.582Z,95.51
2019-02-22T23:09:21.164Z,95.58
2019-02-22T23:11:49.664Z,95.77
2019-02-22T23:14:17.801Z,95.66
2019-02-22T23:16:46.007Z,95.85
2019-02-22T23:19:14.187Z,95.84
2019-02-22T23:21:42.255Z,95.79
2019-02-22T23:24:11.856Z,96.01
2019-02-22T23:26:39.947Z,95.80
2019-02-22T23:29:08.067Z,96.00
2019-02-22T23:31:36.141Z,95.97
2019-02-22T23:34:04.222Z,95.99
2019-02-22T23:36:32.401Z,96.07
2019-02-22T23:39:00.859Z,95.85
2019-02-22T23:41:28.942Z,96.07
2019-02-22T23:43:57.346Z,95.93
2019-02-22T23:46:25.422Z,96.08
2019-02-22T23:48:53.590Z,95.57
2019-02-22T23:51:21.680Z,95.98
2019-02-22T23:53:49.898Z,95.96
2019-02-22T23:56:18.249Z,96.12
2019-02-22T23:58:46.349Z,95.93
